sensor_id;sensor_type;location;lat;lon;timestamp;P1;durP1;ratioP1;P2;durP2;ratioP2
85218;SDS011;75606;40.152;44.490;2024-03-06T00:01:20;45.72;;;21.58;;
85218;SDS011;75606;40.152;44.490;2024-03-06T00:03:45;39.17;;;20.00;;
85218;SDS011;75606;40.152;44.490;2024-03-06T00:06:11;46.08;;;21.58;;
85218;SDS011;75606;40.152;44.490;2024-03-06T00:08:37;41.95;;;21.35;;
85218;SDS011;75606;40.152;44.490;2024-03-06T00:11:02;47.10;;;23.70;;
85218;SDS011;75606;40.152;44.490;2024-03-06T00:13:28;41.10;;;22.67;;
85218;SDS011;75606;40.152;44.490;2024-03-06T00:15:54;41.40;;;20.52;;
85218;SDS011;75606;40.152;44.490;2024-03-06T00:18:19;31.83;;;18.00;;
85218;SDS011;75606;40.152;44.490;2024-03-06T00:20:45;43.35;;;21.20;;
85218;SDS011;75606;40.152;44.490;2024-03-06T00:23:10;38.33;;;21.65;;
85218;SDS011;75606;40.152;44.490;2024-03-06T00:25:36;33.10;;;18.70;;
85218;SDS011;75606;40.152;44.490;2024-03-06T00:28:02;45.60;;;21.42;;
85218;SDS011;75606;40.152;44.490;2024-03-06T00:30:31;41.08;;;20.83;;
85218;SDS011;75606;40.152;44.490;2024-03-06T00:32:57;35.40;;;20.52;;
85218;SDS011;75606;40.152;44.490;2024-03-06T00:35:24;38.00;;;18.85;;
85218;SDS011;75606;40.152;44.490;2024-03-06T00:37:51;38.80;;;18.75;;
85218;SDS011;75606;40.152;44.490;2024-03-06T00:40:18;45.25;;;21.45;;
85218;SDS011;75606;40.152;44.490;2024-03-06T00:42:44;36.50;;;20.75;;
85218;SDS011;75606;40.152;44.490;2024-03-06T00:45:11;39.53;;;21.20;;
85218;SDS011;75606;40.152;44.490;2024-03-06T00:47:37;36.95;;;19.15;;
85218;SDS011;75606;40.152;44.490;2024-03-06T00:50:03;37.40;;;20.23;;
85218;SDS011;75606;40.152;44.490;2024-03-06T00:52:32;34.50;;;19.20;;
85218;SDS011;75606;40.152;44.490;2024-03-06T00:54:59;39.20;;;19.77;;
85218;SDS011;75606;40.152;44.490;2024-03-06T00:57:25;38.53;;;18.85;;
85218;SDS011;75606;40.152;44.490;2024-03-06T00:59:51;31.83;;;17.58;;
85218;SDS011;75606;40.152;44.490;2024-03-06T01:02:18;38.30;;;20.10;;
85218;SDS011;75606;40.152;44.490;2024-03-06T01:04:47;35.83;;;20.52;;
85218;SDS011;75606;40.152;44.490;2024-03-06T01:07:17;28.13;;;15.60;;
85218;SDS011;75606;40.152;44.490;2024-03-06T01:09:43;31.13;;;16.40;;
85218;SDS011;75606;40.152;44.490;2024-03-06T01:12:09;32.25;;;18.08;;
85218;SDS011;75606;40.152;44.490;2024-03-06T01:14:36;36.75;;;17.88;;
85218;SDS011;75606;40.152;44.490;2024-03-06T01:17:01;38.65;;;19.60;;
85218;SDS011;75606;40.152;44.490;2024-03-06T01:19:27;35.60;;;17.52;;
85218;SDS011;75606;40.152;44.490;2024-03-06T01:21:53;37.75;;;20.02;;
85218;SDS011;75606;40.152;44.490;2024-03-06T01:24:18;31.95;;;16.83;;
85218;SDS011;75606;40.152;44.490;2024-03-06T01:26:44;25.02;;;14.68;;
85218;SDS011;75606;40.152;44.490;2024-03-06T01:29:10;32.95;;;17.63;;
85218;SDS011;75606;40.152;44.490;2024-03-06T01:31:35;27.88;;;16.70;;
85218;SDS011;75606;40.152;44.490;2024-03-06T01:34:01;30.27;;;16.13;;
85218;SDS011;75606;40.152;44.490;2024-03-06T01:36:27;29.40;;;16.42;;
85218;SDS011;75606;40.152;44.490;2024-03-06T01:38:52;28.25;;;15.43;;
85218;SDS011;75606;40.152;44.490;2024-03-06T01:41:18;31.13;;;16.55;;
85218;SDS011;75606;40.152;44.490;2024-03-06T01:43:44;26.10;;;16.60;;
85218;SDS011;75606;40.152;44.490;2024-03-06T01:46:09;26.67;;;15.23;;
85218;SDS011;75606;40.152;44.490;2024-03-06T01:48:35;27.05;;;15.50;;
85218;SDS011;75606;40.152;44.490;2024-03-06T01:51:02;27.90;;;16.30;;
85218;SDS011;75606;40.152;44.490;2024-03-06T01:53:29;38.85;;;18.80;;
85218;SDS011;75606;40.152;44.490;2024-03-06T01:55:57;32.70;;;18.15;;
85218;SDS011;75606;40.152;44.490;2024-03-06T01:58:23;37.55;;;20.08;;
85218;SDS011;75606;40.152;44.490;2024-03-06T02:00:49;29.55;;;15.15;;
85218;SDS011;75606;40.152;44.490;2024-03-06T02:03:15;30.63;;;17.80;;
85218;SDS011;75606;40.152;44.490;2024-03-06T02:05:42;38.83;;;21.13;;
85218;SDS011;75606;40.152;44.490;2024-03-06T02:08:08;36.55;;;19.75;;
85218;SDS011;75606;40.152;44.490;2024-03-06T02:10:34;33.45;;;18.65;;
85218;SDS011;75606;40.152;44.490;2024-03-06T02:13:00;37.95;;;20.42;;
85218;SDS011;75606;40.152;44.490;2024-03-06T02:15:25;39.10;;;20.05;;
85218;SDS011;75606;40.152;44.490;2024-03-06T02:17:51;43.47;;;20.55;;
85218;SDS011;75606;40.152;44.490;2024-03-06T02:20:24;35.03;;;18.52;;
85218;SDS011;75606;40.152;44.490;2024-03-06T02:22:50;38.47;;;19.67;;
85218;SDS011;75606;40.152;44.490;2024-03-06T02:25:16;38.90;;;20.15;;
85218;SDS011;75606;40.152;44.490;2024-03-06T02:27:44;36.25;;;20.58;;
85218;SDS011;75606;40.152;44.490;2024-03-06T02:30:10;37.63;;;21.15;;
85218;SDS011;75606;40.152;44.490;2024-03-06T02:32:36;35.42;;;19.67;;
85218;SDS011;75606;40.152;44.490;2024-03-06T02:35:02;41.42;;;20.67;;
85218;SDS011;75606;40.152;44.490;2024-03-06T02:37:28;40.30;;;19.30;;
85218;SDS011;75606;40.152;44.490;2024-03-06T02:39:54;39.28;;;21.10;;
85218;SDS011;75606;40.152;44.490;2024-03-06T02:42:20;46.05;;;22.88;;
85218;SDS011;75606;40.152;44.490;2024-03-06T02:44:45;38.17;;;21.10;;
85218;SDS011;75606;40.152;44.490;2024-03-06T02:47:11;27.27;;;15.50;;
85218;SDS011;75606;40.152;44.490;2024-03-06T02:49:37;21.75;;;13.68;;
85218;SDS011;75606;40.152;44.490;2024-03-06T02:52:03;23.33;;;13.30;;
85218;SDS011;75606;40.152;44.490;2024-03-06T02:54:29;20.25;;;12.50;;
85218;SDS011;75606;40.152;44.490;2024-03-06T02:56:55;19.20;;;10.75;;
85218;SDS011;75606;40.152;44.490;2024-03-06T02:59:20;17.67;;;9.95;;
85218;SDS011;75606;40.152;44.490;2024-03-06T03:01:46;16.27;;;11.07;;
85218;SDS011;75606;40.152;44.490;2024-03-06T03:04:12;14.32;;;8.52;;
85218;SDS011;75606;40.152;44.490;2024-03-06T03:06:38;10.82;;;8.05;;
85218;SDS011;75606;40.152;44.490;2024-03-06T03:09:03;13.57;;;9.45;;
85218;SDS011;75606;40.152;44.490;2024-03-06T03:11:29;18.73;;;10.60;;
85218;SDS011;75606;40.152;44.490;2024-03-06T03:13:55;13.10;;;8.23;;
85218;SDS011;75606;40.152;44.490;2024-03-06T03:16:22;11.68;;;8.63;;
85218;SDS011;75606;40.152;44.490;2024-03-06T03:18:47;13.57;;;9.50;;
85218;SDS011;75606;40.152;44.490;2024-03-06T03:21:13;9.95;;;8.13;;
85218;SDS011;75606;40.152;44.490;2024-03-06T03:23:39;11.85;;;9.07;;
85218;SDS011;75606;40.152;44.490;2024-03-06T03:26:05;10.88;;;8.38;;
85218;SDS011;75606;40.152;44.490;2024-03-06T03:28:34;12.77;;;8.50;;
85218;SDS011;75606;40.152;44.490;2024-03-06T03:31:03;13.07;;;9.20;;
85218;SDS011;75606;40.152;44.490;2024-03-06T03:33:29;12.32;;;8.45;;
85218;SDS011;75606;40.152;44.490;2024-03-06T03:35:54;13.40;;;9.82;;
85218;SDS011;75606;40.152;44.490;2024-03-06T03:38:20;11.43;;;9.15;;
85218;SDS011;75606;40.152;44.490;2024-03-06T03:40:46;11.00;;;8.70;;
85218;SDS011;75606;40.152;44.490;2024-03-06T03:43:11;15.25;;;9.68;;
85218;SDS011;75606;40.152;44.490;2024-03-06T03:45:37;13.93;;;8.85;;
85218;SDS011;75606;40.152;44.490;2024-03-06T03:48:04;27.13;;;14.32;;
85218;SDS011;75606;40.152;44.490;2024-03-06T03:50:30;45.60;;;20.00;;
85218;SDS011;75606;40.152;44.490;2024-03-06T03:52:57;51.53;;;22.02;;
85218;SDS011;75606;40.152;44.490;2024-03-06T03:55:26;43.38;;;19.70;;
85218;SDS011;75606;40.152;44.490;2024-03-06T03:57:52;31.70;;;15.88;;
85218;SDS011;75606;40.152;44.490;2024-03-06T04:00:21;29.40;;;15.15;;
85218;SDS011;75606;40.152;44.490;2024-03-06T04:02:48;20.77;;;12.07;;
85218;SDS011;75606;40.152;44.490;2024-03-06T04:05:13;20.58;;;12.45;;
85218;SDS011;75606;40.152;44.490;2024-03-06T04:07:39;17.77;;;10.90;;
85218;SDS011;75606;40.152;44.490;2024-03-06T04:10:05;21.10;;;10.32;;
85218;SDS011;75606;40.152;44.490;2024-03-06T04:12:31;16.23;;;9.77;;
85218;SDS011;75606;40.152;44.490;2024-03-06T04:14:57;14.45;;;9.30;;
85218;SDS011;75606;40.152;44.490;2024-03-06T04:17:23;12.00;;;9.13;;
85218;SDS011;75606;40.152;44.490;2024-03-06T04:19:50;15.75;;;9.70;;
85218;SDS011;75606;40.152;44.490;2024-03-06T04:22:18;14.13;;;9.65;;
85218;SDS011;75606;40.152;44.490;2024-03-06T04:24:44;14.13;;;9.65;;
85218;SDS011;75606;40.152;44.490;2024-03-06T04:27:10;14.55;;;9.38;;
85218;SDS011;75606;40.152;44.490;2024-03-06T04:29:35;14.60;;;8.60;;
85218;SDS011;75606;40.152;44.490;2024-03-06T04:32:01;14.00;;;9.48;;
85218;SDS011;75606;40.152;44.490;2024-03-06T04:34:27;13.50;;;8.93;;
85218;SDS011;75606;40.152;44.490;2024-03-06T04:36:52;11.30;;;8.75;;
85218;SDS011;75606;40.152;44.490;2024-03-06T04:39:18;12.40;;;7.97;;
85218;SDS011;75606;40.152;44.490;2024-03-06T04:41:43;11.48;;;8.02;;
85218;SDS011;75606;40.152;44.490;2024-03-06T04:44:09;17.67;;;11.30;;
85218;SDS011;75606;40.152;44.490;2024-03-06T04:46:35;16.35;;;9.82;;
85218;SDS011;75606;40.152;44.490;2024-03-06T04:49:00;12.30;;;8.55;;
85218;SDS011;75606;40.152;44.490;2024-03-06T04:51:26;10.25;;;7.80;;
85218;SDS011;75606;40.152;44.490;2024-03-06T04:53:52;15.73;;;10.60;;
85218;SDS011;75606;40.152;44.490;2024-03-06T04:56:17;16.63;;;10.27;;
85218;SDS011;75606;40.152;44.490;2024-03-06T04:58:45;23.42;;;11.10;;
85218;SDS011;75606;40.152;44.490;2024-03-06T05:01:12;17.10;;;9.18;;
85218;SDS011;75606;40.152;44.490;2024-03-06T05:03:38;20.13;;;11.13;;
85218;SDS011;75606;40.152;44.490;2024-03-06T05:06:05;22.60;;;11.90;;
85218;SDS011;75606;40.152;44.490;2024-03-06T05:08:31;20.65;;;10.75;;
85218;SDS011;75606;40.152;44.490;2024-03-06T05:10:56;20.60;;;11.80;;
85218;SDS011;75606;40.152;44.490;2024-03-06T05:13:22;21.83;;;12.15;;
85218;SDS011;75606;40.152;44.490;2024-03-06T05:15:48;21.80;;;11.75;;
85218;SDS011;75606;40.152;44.490;2024-03-06T05:18:14;20.23;;;12.65;;
85218;SDS011;75606;40.152;44.490;2024-03-06T05:20:40;23.52;;;15.88;;
85218;SDS011;75606;40.152;44.490;2024-03-06T05:23:05;23.70;;;15.88;;
85218;SDS011;75606;40.152;44.490;2024-03-06T05:25:31;33.47;;;18.02;;
85218;SDS011;75606;40.152;44.490;2024-03-06T05:27:56;35.80;;;19.05;;
85218;SDS011;75606;40.152;44.490;2024-03-06T05:30:22;33.10;;;18.45;;
85218;SDS011;75606;40.152;44.490;2024-03-06T05:32:48;29.85;;;18.60;;
85218;SDS011;75606;40.152;44.490;2024-03-06T05:35:13;31.10;;;17.95;;
85218;SDS011;75606;40.152;44.490;2024-03-06T05:37:39;30.15;;;18.85;;
85218;SDS011;75606;40.152;44.490;2024-03-06T05:40:05;29.00;;;16.45;;
85218;SDS011;75606;40.152;44.490;2024-03-06T05:42:31;23.38;;;13.98;;
85218;SDS011;75606;40.152;44.490;2024-03-06T05:44:57;24.95;;;15.90;;
85218;SDS011;75606;40.152;44.490;2024-03-06T05:47:30;27.50;;;15.55;;
85218;SDS011;75606;40.152;44.490;2024-03-06T05:49:57;24.40;;;14.98;;
85218;SDS011;75606;40.152;44.490;2024-03-06T05:52:23;30.88;;;17.63;;
85218;SDS011;75606;40.152;44.490;2024-03-06T05:54:49;22.75;;;15.57;;
85218;SDS011;75606;40.152;44.490;2024-03-06T05:57:15;34.88;;;17.20;;
85218;SDS011;75606;40.152;44.490;2024-03-06T05:59:41;20.75;;;12.82;;
85218;SDS011;75606;40.152;44.490;2024-03-06T06:02:07;33.08;;;16.52;;
85218;SDS011;75606;40.152;44.490;2024-03-06T06:04:32;31.63;;;19.50;;
85218;SDS011;75606;40.152;44.490;2024-03-06T06:06:58;39.20;;;20.17;;
85218;SDS011;75606;40.152;44.490;2024-03-06T06:09:24;28.20;;;17.92;;
85218;SDS011;75606;40.152;44.490;2024-03-06T06:11:49;39.00;;;17.93;;
85218;SDS011;75606;40.152;44.490;2024-03-06T06:14:15;26.05;;;16.05;;
85218;SDS011;75606;40.152;44.490;2024-03-06T06:16:41;26.98;;;16.58;;
85218;SDS011;75606;40.152;44.490;2024-03-06T06:19:07;29.77;;;16.52;;
85218;SDS011;75606;40.152;44.490;2024-03-06T06:21:33;31.73;;;17.75;;
85218;SDS011;75606;40.152;44.490;2024-03-06T06:24:01;28.25;;;16.42;;
85218;SDS011;75606;40.152;44.490;2024-03-06T06:26:29;36.53;;;21.42;;
85218;SDS011;75606;40.152;44.490;2024-03-06T06:28:56;38.67;;;21.02;;
85218;SDS011;75606;40.152;44.490;2024-03-06T06:31:22;33.53;;;20.92;;
85218;SDS011;75606;40.152;44.490;2024-03-06T06:33:50;39.72;;;21.48;;
85218;SDS011;75606;40.152;44.490;2024-03-06T06:36:17;31.60;;;17.77;;
85218;SDS011;75606;40.152;44.490;2024-03-06T06:38:51;22.52;;;13.68;;
85218;SDS011;75606;40.152;44.490;2024-03-06T06:41:17;30.02;;;17.63;;
85218;SDS011;75606;40.152;44.490;2024-03-06T06:43:44;29.23;;;17.48;;
85218;SDS011;75606;40.152;44.490;2024-03-06T06:46:10;29.63;;;16.80;;
85218;SDS011;75606;40.152;44.490;2024-03-06T06:48:36;26.83;;;15.23;;
85218;SDS011;75606;40.152;44.490;2024-03-06T06:51:02;33.95;;;18.77;;
85218;SDS011;75606;40.152;44.490;2024-03-06T06:53:30;29.55;;;15.63;;
85218;SDS011;75606;40.152;44.490;2024-03-06T06:55:56;42.38;;;19.85;;
85218;SDS011;75606;40.152;44.490;2024-03-06T06:58:26;31.88;;;16.67;;
85218;SDS011;75606;40.152;44.490;2024-03-06T07:00:52;29.15;;;16.35;;
85218;SDS011;75606;40.152;44.490;2024-03-06T07:03:18;28.13;;;15.98;;
85218;SDS011;75606;40.152;44.490;2024-03-06T07:05:44;27.92;;;17.88;;
85218;SDS011;75606;40.152;44.490;2024-03-06T07:08:10;25.80;;;15.15;;
85218;SDS011;75606;40.152;44.490;2024-03-06T07:10:35;29.67;;;17.10;;
85218;SDS011;75606;40.152;44.490;2024-03-06T07:13:02;31.20;;;19.92;;
85218;SDS011;75606;40.152;44.490;2024-03-06T07:15:28;31.42;;;17.63;;
85218;SDS011;75606;40.152;44.490;2024-03-06T07:17:54;31.83;;;17.88;;
85218;SDS011;75606;40.152;44.490;2024-03-06T07:20:19;22.55;;;14.02;;
85218;SDS011;75606;40.152;44.490;2024-03-06T07:22:45;24.45;;;14.68;;
85218;SDS011;75606;40.152;44.490;2024-03-06T07:25:11;34.38;;;20.33;;
85218;SDS011;75606;40.152;44.490;2024-03-06T07:27:36;24.45;;;13.25;;
85218;SDS011;75606;40.152;44.490;2024-03-06T07:30:02;29.27;;;17.35;;
85218;SDS011;75606;40.152;44.490;2024-03-06T07:32:28;24.50;;;15.60;;
85218;SDS011;75606;40.152;44.490;2024-03-06T07:34:53;25.95;;;16.33;;
85218;SDS011;75606;40.152;44.490;2024-03-06T07:37:19;33.53;;;18.70;;
85218;SDS011;75606;40.152;44.490;2024-03-06T07:39:45;37.25;;;19.25;;
85218;SDS011;75606;40.152;44.490;2024-03-06T07:42:10;35.15;;;17.45;;
85218;SDS011;75606;40.152;44.490;2024-03-06T07:44:36;29.73;;;17.15;;
85218;SDS011;75606;40.152;44.490;2024-03-06T07:47:02;41.72;;;21.17;;
85218;SDS011;75606;40.152;44.490;2024-03-06T07:49:28;34.38;;;17.42;;
85218;SDS011;75606;40.152;44.490;2024-03-06T07:51:54;21.90;;;11.95;;
85218;SDS011;75606;40.152;44.490;2024-03-06T07:54:20;21.95;;;12.70;;
85218;SDS011;75606;40.152;44.490;2024-03-06T07:56:46;18.17;;;10.48;;
85218;SDS011;75606;40.152;44.490;2024-03-06T07:59:13;18.88;;;11.20;;
85218;SDS011;75606;40.152;44.490;2024-03-06T08:01:43;23.08;;;11.70;;
85218;SDS011;75606;40.152;44.490;2024-03-06T08:04:08;16.55;;;10.07;;
85218;SDS011;75606;40.152;44.490;2024-03-06T08:06:34;11.50;;;7.40;;
85218;SDS011;75606;40.152;44.490;2024-03-06T08:09:02;11.55;;;7.95;;
85218;SDS011;75606;40.152;44.490;2024-03-06T08:11:28;12.63;;;8.77;;
85218;SDS011;75606;40.152;44.490;2024-03-06T08:14:00;11.32;;;8.38;;
85218;SDS011;75606;40.152;44.490;2024-03-06T08:16:27;14.32;;;7.70;;
85218;SDS011;75606;40.152;44.490;2024-03-06T08:18:55;11.20;;;7.82;;
85218;SDS011;75606;40.152;44.490;2024-03-06T08:21:22;14.85;;;10.55;;
85218;SDS011;75606;40.152;44.490;2024-03-06T08:23:48;13.55;;;9.05;;
85218;SDS011;75606;40.152;44.490;2024-03-06T08:26:14;12.40;;;8.07;;
85218;SDS011;75606;40.152;44.490;2024-03-06T08:28:40;10.65;;;7.68;;
85218;SDS011;75606;40.152;44.490;2024-03-06T08:31:05;10.93;;;7.82;;
85218;SDS011;75606;40.152;44.490;2024-03-06T08:33:31;17.08;;;10.30;;
85218;SDS011;75606;40.152;44.490;2024-03-06T08:35:57;17.95;;;8.40;;
85218;SDS011;75606;40.152;44.490;2024-03-06T08:38:23;11.65;;;8.07;;
85218;SDS011;75606;40.152;44.490;2024-03-06T08:40:49;11.70;;;8.25;;
85218;SDS011;75606;40.152;44.490;2024-03-06T08:43:15;15.80;;;6.93;;
85218;SDS011;75606;40.152;44.490;2024-03-06T08:45:41;9.32;;;6.80;;
85218;SDS011;75606;40.152;44.490;2024-03-06T08:48:09;8.23;;;6.32;;
85218;SDS011;75606;40.152;44.490;2024-03-06T08:50:36;13.48;;;7.38;;
85218;SDS011;75606;40.152;44.490;2024-03-06T08:53:02;11.18;;;6.93;;
85218;SDS011;75606;40.152;44.490;2024-03-06T08:55:28;7.22;;;5.38;;
85218;SDS011;75606;40.152;44.490;2024-03-06T08:57:53;6.97;;;4.85;;
85218;SDS011;75606;40.152;44.490;2024-03-06T09:00:19;8.13;;;6.78;;
85218;SDS011;75606;40.152;44.490;2024-03-06T09:02:45;14.20;;;8.50;;
85218;SDS011;75606;40.152;44.490;2024-03-06T09:05:10;9.18;;;6.43;;
85218;SDS011;75606;40.152;44.490;2024-03-06T09:07:38;9.50;;;7.72;;
85218;SDS011;75606;40.152;44.490;2024-03-06T09:10:06;13.57;;;8.40;;
85218;SDS011;75606;40.152;44.490;2024-03-06T09:12:32;11.48;;;8.57;;
85218;SDS011;75606;40.152;44.490;2024-03-06T09:14:58;9.23;;;7.38;;
85218;SDS011;75606;40.152;44.490;2024-03-06T09:17:25;11.70;;;7.97;;
85218;SDS011;75606;40.152;44.490;2024-03-06T09:19:51;32.00;;;10.82;;
85218;SDS011;75606;40.152;44.490;2024-03-06T09:22:17;16.75;;;9.98;;
85218;SDS011;75606;40.152;44.490;2024-03-06T09:24:42;11.73;;;7.93;;
85218;SDS011;75606;40.152;44.490;2024-03-06T09:27:08;12.85;;;8.38;;
85218;SDS011;75606;40.152;44.490;2024-03-06T09:29:34;13.55;;;8.68;;
85218;SDS011;75606;40.152;44.490;2024-03-06T09:31:59;10.73;;;6.63;;
85218;SDS011;75606;40.152;44.490;2024-03-06T09:34:25;30.42;;;9.30;;
85218;SDS011;75606;40.152;44.490;2024-03-06T09:36:51;10.25;;;7.03;;
85218;SDS011;75606;40.152;44.490;2024-03-06T09:39:17;8.93;;;6.32;;
85218;SDS011;75606;40.152;44.490;2024-03-06T09:41:48;9.40;;;7.10;;
85218;SDS011;75606;40.152;44.490;2024-03-06T09:44:15;7.93;;;6.93;;
85218;SDS011;75606;40.152;44.490;2024-03-06T09:46:45;8.65;;;6.88;;
85218;SDS011;75606;40.152;44.490;2024-03-06T09:49:13;8.23;;;6.25;;
85218;SDS011;75606;40.152;44.490;2024-03-06T09:51:42;8.40;;;6.43;;
85218;SDS011;75606;40.152;44.490;2024-03-06T09:54:15;10.80;;;6.53;;
85218;SDS011;75606;40.152;44.490;2024-03-06T09:56:41;9.48;;;6.63;;
85218;SDS011;75606;40.152;44.490;2024-03-06T09:59:08;10.43;;;6.60;;
85218;SDS011;75606;40.152;44.490;2024-03-06T10:01:35;9.88;;;7.25;;
85218;SDS011;75606;40.152;44.490;2024-03-06T10:04:19;10.07;;;7.65;;
85218;SDS011;75606;40.152;44.490;2024-03-06T10:06:55;9.13;;;6.47;;
85218;SDS011;75606;40.152;44.490;2024-03-06T10:09:22;8.57;;;6.82;;
85218;SDS011;75606;40.152;44.490;2024-03-06T10:11:48;9.45;;;6.97;;
85218;SDS011;75606;40.152;44.490;2024-03-06T10:14:14;12.02;;;8.60;;
85218;SDS011;75606;40.152;44.490;2024-03-06T10:17:01;11.38;;;7.47;;
85218;SDS011;75606;40.152;44.490;2024-03-06T10:19:26;10.27;;;7.72;;
85218;SDS011;75606;40.152;44.490;2024-03-06T10:21:53;11.02;;;6.38;;
85218;SDS011;75606;40.152;44.490;2024-03-06T10:24:20;9.00;;;5.72;;
85218;SDS011;75606;40.152;44.490;2024-03-06T10:26:49;8.35;;;6.35;;
85218;SDS011;75606;40.152;44.490;2024-03-06T10:29:18;12.43;;;8.02;;
85218;SDS011;75606;40.152;44.490;2024-03-06T10:31:52;7.68;;;6.18;;
85218;SDS011;75606;40.152;44.490;2024-03-06T10:34:25;10.88;;;7.97;;
85218;SDS011;75606;40.152;44.490;2024-03-06T10:36:55;9.70;;;7.40;;
85218;SDS011;75606;40.152;44.490;2024-03-06T10:39:21;9.57;;;7.20;;
85218;SDS011;75606;40.152;44.490;2024-03-06T10:41:51;12.27;;;7.00;;
85218;SDS011;75606;40.152;44.490;2024-03-06T10:44:19;8.70;;;6.38;;
85218;SDS011;75606;40.152;44.490;2024-03-06T10:46:47;11.68;;;6.10;;
85218;SDS011;75606;40.152;44.490;2024-03-06T10:49:20;10.90;;;6.75;;
85218;SDS011;75606;40.152;44.490;2024-03-06T10:51:45;9.38;;;6.22;;
85218;SDS011;75606;40.152;44.490;2024-03-06T10:54:12;10.05;;;6.50;;
85218;SDS011;75606;40.152;44.490;2024-03-06T10:56:39;8.23;;;5.55;;
85218;SDS011;75606;40.152;44.490;2024-03-06T10:59:11;13.10;;;6.53;;
85218;SDS011;75606;40.152;44.490;2024-03-06T11:01:39;8.15;;;4.97;;
85218;SDS011;75606;40.152;44.490;2024-03-06T11:04:05;7.97;;;5.95;;
85218;SDS011;75606;40.152;44.490;2024-03-06T11:06:32;7.38;;;5.70;;
85218;SDS011;75606;40.152;44.490;2024-03-06T11:08:59;9.13;;;5.95;;
85218;SDS011;75606;40.152;44.490;2024-03-06T11:11:27;10.13;;;6.03;;
85218;SDS011;75606;40.152;44.490;2024-03-06T11:13:55;13.05;;;6.10;;
85218;SDS011;75606;40.152;44.490;2024-03-06T11:16:32;7.00;;;5.25;;
85218;SDS011;75606;40.152;44.490;2024-03-06T11:19:06;8.90;;;5.50;;
85218;SDS011;75606;40.152;44.490;2024-03-06T11:21:32;7.95;;;5.95;;
85218;SDS011;75606;40.152;44.490;2024-03-06T11:26:47;6.10;;;5.00;;
85218;SDS011;75606;40.152;44.490;2024-03-06T11:29:18;7.72;;;4.90;;
85218;SDS011;75606;40.152;44.490;2024-03-06T11:34:35;9.57;;;4.97;;
85218;SDS011;75606;40.152;44.490;2024-03-06T11:37:05;6.63;;;5.03;;
85218;SDS011;75606;40.152;44.490;2024-03-06T11:39:34;7.40;;;5.05;;
85218;SDS011;75606;40.152;44.490;2024-03-06T11:42:01;9.88;;;5.78;;
85218;SDS011;75606;40.152;44.490;2024-03-06T11:44:28;9.70;;;5.85;;
85218;SDS011;75606;40.152;44.490;2024-03-06T11:49:24;5.78;;;3.75;;
85218;SDS011;75606;40.152;44.490;2024-03-06T11:51:54;5.65;;;3.97;;
85218;SDS011;75606;40.152;44.490;2024-03-06T11:54:20;6.25;;;4.95;;
85218;SDS011;75606;40.152;44.490;2024-03-06T11:56:53;7.50;;;5.43;;
85218;SDS011;75606;40.152;44.490;2024-03-06T11:59:28;7.65;;;4.60;;
85218;SDS011;75606;40.152;44.490;2024-03-06T12:01:54;7.38;;;4.50;;
85218;SDS011;75606;40.152;44.490;2024-03-06T12:04:21;6.07;;;4.20;;
85218;SDS011;75606;40.152;44.490;2024-03-06T12:06:47;5.20;;;3.83;;
85218;SDS011;75606;40.152;44.490;2024-03-06T12:09:14;8.50;;;5.80;;
85218;SDS011;75606;40.152;44.490;2024-03-06T12:11:40;6.55;;;4.63;;
85218;SDS011;75606;40.152;44.490;2024-03-06T12:14:12;6.68;;;4.38;;
85218;SDS011;75606;40.152;44.490;2024-03-06T12:16:43;5.75;;;4.25;;
85218;SDS011;75606;40.152;44.490;2024-03-06T12:19:09;6.53;;;4.60;;
85218;SDS011;75606;40.152;44.490;2024-03-06T12:21:35;6.75;;;4.40;;
85218;SDS011;75606;40.152;44.490;2024-03-06T12:24:08;7.43;;;5.22;;
85218;SDS011;75606;40.152;44.490;2024-03-06T12:26:34;6.38;;;4.95;;
85218;SDS011;75606;40.152;44.490;2024-03-06T12:29:07;9.13;;;5.68;;
85218;SDS011;75606;40.152;44.490;2024-03-06T12:31:34;8.00;;;5.13;;
85218;SDS011;75606;40.152;44.490;2024-03-06T12:34:02;7.65;;;4.80;;
85218;SDS011;75606;40.152;44.490;2024-03-06T12:36:28;6.68;;;4.88;;
85218;SDS011;75606;40.152;44.490;2024-03-06T12:38:55;7.60;;;5.55;;
85218;SDS011;75606;40.152;44.490;2024-03-06T12:41:22;7.53;;;5.15;;
85218;SDS011;75606;40.152;44.490;2024-03-06T12:43:47;9.55;;;5.45;;
85218;SDS011;75606;40.152;44.490;2024-03-06T12:46:13;9.00;;;3.95;;
85218;SDS011;75606;40.152;44.490;2024-03-06T12:48:38;7.60;;;4.43;;
85218;SDS011;75606;40.152;44.490;2024-03-06T12:51:04;8.65;;;5.20;;
85218;SDS011;75606;40.152;44.490;2024-03-06T12:53:30;10.30;;;6.03;;
85218;SDS011;75606;40.152;44.490;2024-03-06T12:55:57;13.63;;;7.50;;
85218;SDS011;75606;40.152;44.490;2024-03-06T12:58:22;10.10;;;5.13;;
85218;SDS011;75606;40.152;44.490;2024-03-06T13:00:48;9.43;;;5.70;;
85218;SDS011;75606;40.152;44.490;2024-03-06T13:03:13;7.07;;;4.53;;
85218;SDS011;75606;40.152;44.490;2024-03-06T13:05:39;6.32;;;4.13;;
85218;SDS011;75606;40.152;44.490;2024-03-06T13:08:05;7.95;;;5.75;;
85218;SDS011;75606;40.152;44.490;2024-03-06T13:10:31;6.22;;;3.88;;
85218;SDS011;75606;40.152;44.490;2024-03-06T13:12:57;9.10;;;6.25;;
85218;SDS011;75606;40.152;44.490;2024-03-06T13:15:22;8.23;;;5.78;;
85218;SDS011;75606;40.152;44.490;2024-03-06T13:17:48;10.23;;;6.80;;
85218;SDS011;75606;40.152;44.490;2024-03-06T13:20:13;10.82;;;6.90;;
85218;SDS011;75606;40.152;44.490;2024-03-06T13:22:39;13.18;;;6.78;;
85218;SDS011;75606;40.152;44.490;2024-03-06T13:25:05;13.50;;;7.57;;
85218;SDS011;75606;40.152;44.490;2024-03-06T13:27:31;9.70;;;6.43;;
85218;SDS011;75606;40.152;44.490;2024-03-06T13:29:57;10.63;;;6.47;;
85218;SDS011;75606;40.152;44.490;2024-03-06T13:32:23;8.68;;;5.82;;
85218;SDS011;75606;40.152;44.490;2024-03-06T13:34:49;9.93;;;5.70;;
85218;SDS011;75606;40.152;44.490;2024-03-06T13:37:15;11.35;;;7.72;;
85218;SDS011;75606;40.152;44.490;2024-03-06T13:39:41;9.38;;;6.32;;
85218;SDS011;75606;40.152;44.490;2024-03-06T13:42:07;8.82;;;5.45;;
85218;SDS011;75606;40.152;44.490;2024-03-06T13:44:34;11.82;;;7.38;;
85218;SDS011;75606;40.152;44.490;2024-03-06T13:47:00;9.43;;;6.05;;
85218;SDS011;75606;40.152;44.490;2024-03-06T13:49:37;16.52;;;9.45;;
85218;SDS011;75606;40.152;44.490;2024-03-06T13:52:05;14.18;;;7.50;;
85218;SDS011;75606;40.152;44.490;2024-03-06T13:54:32;10.65;;;6.78;;
85218;SDS011;75606;40.152;44.490;2024-03-06T13:57:05;8.90;;;5.95;;
85218;SDS011;75606;40.152;44.490;2024-03-06T13:59:31;12.43;;;7.82;;
85218;SDS011;75606;40.152;44.490;2024-03-06T14:01:57;16.02;;;7.00;;
85218;SDS011;75606;40.152;44.490;2024-03-06T14:04:24;12.13;;;7.32;;
85218;SDS011;75606;40.152;44.490;2024-03-06T14:06:50;12.25;;;6.50;;
85218;SDS011;75606;40.152;44.490;2024-03-06T14:09:16;12.70;;;7.00;;
85218;SDS011;75606;40.152;44.490;2024-03-06T14:11:41;15.85;;;9.57;;
85218;SDS011;75606;40.152;44.490;2024-03-06T14:14:07;13.65;;;7.00;;
85218;SDS011;75606;40.152;44.490;2024-03-06T14:16:34;19.90;;;11.05;;
85218;SDS011;75606;40.152;44.490;2024-03-06T14:19:00;23.10;;;10.65;;
85218;SDS011;75606;40.152;44.490;2024-03-06T14:21:25;19.90;;;10.55;;
85218;SDS011;75606;40.152;44.490;2024-03-06T14:23:51;24.65;;;12.32;;